createdAt,value
2018-08-17T00:00:29.888Z,9.87
2018-08-17T00:02:58.380Z,11.20
2018-08-17T00:05:26.861Z,11.37
2018-08-17T00:07:55.367Z,11.27
2018-08-17T00:10:23.880Z,10.97
2018-08-17T00:12:52.344Z,11.23
2018-08-17T00:15:20.846Z,11.80
2018-08-17T00:17:49.333Z,12.17
2018-08-17T00:20:17.875Z,11.17
2018-08-17T00:22:46.335Z,11.30
2018-08-17T00:25:14.803Z,10.40
2018-08-17T00:27:43.300Z,11.50
2018-08-17T00:30:11.764Z,11.50
2018-08-17T00:32:40.300Z,11.83
2018-08-17T00:35:08.759Z,11.10
2018-08-17T00:37:37.239Z,11.33
2018-08-17T00:40:05.973Z,12.07
2018-08-17T00:42:34.900Z,12.17
2018-08-17T00:45:03.454Z,12.27
2018-08-17T00:47:31.934Z,14.17
2018-08-17T00:50:00.416Z,12.83
2018-08-17T00:52:28.924Z,12.43
2018-08-17T00:54:57.414Z,12.40
2018-08-17T00:57:25.906Z,13.30
2018-08-17T00:59:54.435Z,14.57
2018-08-17T01:02:22.904Z,13.57
2018-08-17T01:04:51.382Z,13.13
2018-08-17T01:07:19.879Z,11.73
2018-08-17T01:09:48.380Z,12.50
2018-08-17T01:12:16.874Z,13.13
2018-08-17T01:14:45.440Z,13.00
2018-08-17T01:17:13.955Z,12.10
2018-08-17T01:19:42.411Z,13.13
2018-08-17T01:22:10.949Z,14.03
2018-08-17T01:24:39.363Z,15.43
2018-08-17T01:27:07.833Z,13.90
2018-08-17T01:29:36.315Z,14.07
2018-08-17T01:32:04.767Z,14.37
2018-08-17T01:34:33.284Z,13.03
2018-08-17T01:37:01.772Z,13.83
2018-08-17T01:39:30.244Z,13.77
2018-08-17T01:41:58.710Z,14.63
2018-08-17T01:44:27.188Z,13.67
2018-08-17T01:46:55.645Z,13.33
2018-08-17T01:49:24.092Z,12.37
2018-08-17T01:51:52.714Z,13.63
2018-08-17T01:54:21.185Z,13.70
2018-08-17T01:56:49.667Z,13.73
2018-08-17T01:59:18.160Z,13.30
2018-08-17T02:01:46.632Z,13.10
2018-08-17T02:04:15.113Z,14.87
2018-08-17T02:06:43.601Z,16.87
2018-08-17T02:09:12.996Z,17.07
2018-08-17T02:11:42.016Z,17.40
2018-08-17T02:14:10.504Z,17.60
2018-08-17T02:16:39.489Z,17.17
2018-08-17T02:19:07.959Z,16.27
2018-08-17T02:21:36.484Z,15.47
2018-08-17T02:24:04.964Z,16.70
2018-08-17T02:26:33.411Z,17.50
2018-08-17T02:29:01.876Z,16.23
2018-08-17T02:31:30.352Z,16.10
2018-08-17T02:33:58.833Z,16.73
2018-08-17T02:36:27.337Z,18.30
2018-08-17T02:38:55.784Z,18.40
2018-08-17T02:41:24.245Z,17.47
2018-08-17T02:43:52.774Z,16.57
2018-08-17T02:46:21.257Z,16.33
2018-08-17T02:48:49.755Z,16.40
2018-08-17T02:51:18.254Z,15.37
2018-08-17T02:53:46.726Z,16.30
2018-08-17T02:56:15.216Z,16.80
2018-08-17T02:58:43.763Z,18.23
2018-08-17T03:01:12.308Z,17.80
2018-08-17T03:03:40.811Z,15.93
2018-08-17T03:06:09.295Z,16.20
2018-08-17T03:08:37.777Z,15.40
2018-08-17T03:11:06.370Z,15.97
2018-08-17T03:13:34.888Z,16.90
2018-08-17T03:16:03.436Z,16.90
2018-08-17T03:18:32.004Z,16.47
2018-08-17T03:21:00.496Z,17.67
2018-08-17T03:23:28.994Z,17.83
2018-08-17T03:25:57.462Z,17.17
2018-08-17T03:28:25.968Z,17.63
2018-08-17T03:30:54.520Z,17.60
2018-08-17T03:33:23.000Z,18.20
2018-08-17T03:35:51.555Z,17.77
2018-08-17T03:38:20.088Z,17.87
2018-08-17T03:40:48.589Z,17.23
2018-08-17T03:43:17.132Z,18.63
2018-08-17T03:45:45.723Z,17.83
2018-08-17T03:48:14.221Z,15.83
2018-08-17T03:50:42.721Z,18.23
2018-08-17T03:53:11.284Z,19.00
2018-08-17T03:55:39.755Z,20.73
2018-08-17T03:58:08.537Z,20.83
2018-08-17T04:00:37.101Z,17.97
2018-08-17T04:03:05.812Z,19.20
2018-08-17T04:05:34.336Z,20.53
2018-08-17T04:08:02.839Z,18.83
2018-08-17T04:10:31.380Z,20.70
2018-08-17T04:12:59.902Z,19.40
2018-08-17T04:15:28.467Z,20.47
2018-08-17T04:17:56.968Z,20.50
2018-08-17T04:20:25.471Z,19.73
2018-08-17T04:22:54.305Z,20.53
2018-08-17T04:25:22.781Z,21.43
2018-08-17T04:27:51.539Z,20.73
2018-08-17T04:30:20.067Z,22.13
2018-08-17T04:32:48.544Z,22.00
2018-08-17T04:35:17.086Z,23.63
2018-08-17T04:37:45.625Z,22.23
2018-08-17T04:40:14.124Z,24.40
2018-08-17T04:42:42.755Z,23.93
2018-08-17T04:45:11.274Z,25.33
2018-08-17T04:47:39.760Z,27.63
2018-08-17T04:50:09.276Z,27.87
2018-08-17T04:52:38.260Z,28.70
2018-08-17T04:55:07.277Z,29.77
2018-08-17T04:57:35.937Z,29.63
2018-08-17T05:00:06.448Z,28.17
2018-08-17T05:02:35.168Z,25.63
2018-08-17T05:05:03.760Z,27.50
2018-08-17T05:07:32.311Z,27.93
2018-08-17T05:10:00.820Z,29.80
2018-08-17T05:12:29.324Z,30.40
2018-08-17T05:14:57.919Z,29.40
2018-08-17T05:17:26.472Z,24.93
2018-08-17T05:19:55.004Z,24.63
2018-08-17T05:22:23.590Z,27.27
2018-08-17T05:24:52.173Z,29.23
2018-08-17T05:27:20.823Z,27.43
2018-08-17T05:29:49.328Z,27.83
2018-08-17T05:32:17.801Z,25.87
2018-08-17T05:34:46.367Z,26.73
2018-08-17T05:37:14.946Z,29.10
2018-08-17T05:39:43.478Z,30.03
2018-08-17T05:42:12.052Z,33.97
2018-08-17T05:44:40.731Z,30.43
2018-08-17T05:47:09.232Z,29.50
2018-08-17T05:49:37.712Z,28.10
2018-08-17T05:52:06.544Z,28.33
2018-08-17T05:54:35.166Z,30.20
2018-08-17T05:57:03.732Z,31.67
2018-08-17T05:59:32.371Z,29.27
2018-08-17T06:02:00.900Z,29.47
2018-08-17T06:04:29.513Z,29.90
2018-08-17T06:06:58.125Z,33.73
2018-08-17T06:09:26.624Z,32.53
2018-08-17T06:11:55.083Z,35.23
2018-08-17T06:14:23.544Z,34.93
2018-08-17T06:16:52.055Z,34.03
2018-08-17T06:19:20.598Z,33.83
2018-08-17T06:21:49.124Z,32.33
2018-08-17T06:24:17.746Z,33.10
2018-08-17T06:26:46.283Z,32.80
2018-08-17T06:29:14.743Z,34.73
2018-08-17T06:31:43.360Z,33.60
2018-08-17T06:34:12.034Z,32.97
2018-08-17T06:36:40.524Z,34.00
2018-08-17T06:39:10.861Z,34.60
2018-08-17T06:41:39.401Z,35.10
2018-08-17T06:44:08.007Z,33.53
2018-08-17T06:46:36.655Z,32.77
2018-08-17T06:49:05.171Z,36.73
2018-08-17T06:51:33.624Z,36.10
2018-08-17T06:54:02.112Z,28.10
2018-08-17T06:56:30.569Z,33.43
2018-08-17T06:58:59.100Z,32.10
2018-08-17T07:01:27.588Z,30.50
2018-08-17T07:03:56.202Z,28.40
2018-08-17T07:06:24.734Z,29.40
2018-08-17T07:08:53.395Z,28.97
2018-08-17T07:11:22.085Z,29.57
2018-08-17T07:13:50.595Z,29.93
2018-08-17T07:16:19.392Z,30.23
2018-08-17T07:18:47.878Z,30.93
2018-08-17T07:21:16.452Z,29.20
2018-08-17T07:23:44.974Z,28.40
2018-08-17T07:26:13.492Z,30.00
2018-08-17T07:28:41.976Z,28.97
2018-08-17T07:31:10.493Z,27.87
2018-08-17T07:33:39.000Z,28.23
2018-08-17T07:36:07.503Z,24.47
2018-08-17T07:38:36.037Z,23.80
2018-08-17T07:41:04.555Z,19.67
2018-08-17T07:43:33.073Z,15.47
2018-08-17T07:46:01.547Z,14.90
2018-08-17T07:48:30.040Z,13.00
2018-08-17T07:50:58.648Z,12.10
2018-08-17T07:53:27.113Z,11.87
2018-08-17T07:55:55.589Z,10.63
2018-08-17T07:58:24.171Z,9.53
2018-08-17T08:00:52.794Z,9.33
2018-08-17T08:03:21.289Z,8.60
2018-08-17T08:05:49.808Z,8.10
2018-08-17T08:08:18.300Z,8.17
2018-08-17T08:10:46.779Z,7.43
2018-08-17T08:13:15.312Z,6.53
2018-08-17T08:15:43.804Z,3.80
2018-08-17T08:18:12.295Z,3.60
2018-08-17T08:20:43.008Z,3.47
2018-08-17T08:23:22.768Z,3.90
2018-08-17T08:25:51.336Z,3.97
2018-08-17T08:28:20.056Z,3.70
2018-08-17T08:30:48.856Z,3.53
2018-08-17T08:33:17.714Z,3.73
2018-08-17T08:35:46.600Z,4.07
2018-08-17T08:38:15.065Z,3.80
2018-08-17T08:40:43.608Z,3.43
2018-08-17T08:43:12.107Z,4.37
2018-08-17T08:45:40.822Z,3.93
2018-08-17T08:48:09.743Z,4.63
2018-08-17T08:50:38.736Z,4.80
2018-08-17T08:53:07.672Z,5.70
2018-08-17T08:55:36.201Z,6.80
2018-08-17T08:58:05.011Z,7.70
2018-08-17T09:00:33.574Z,6.77
2018-08-17T09:03:02.230Z,6.13
2018-08-17T09:05:30.709Z,5.40
2018-08-17T09:07:59.204Z,5.40
2018-08-17T09:10:27.700Z,5.60
2018-08-17T09:12:56.272Z,6.10
2018-08-17T09:15:24.787Z,6.70
2018-08-17T09:17:53.321Z,6.33
2018-08-17T09:20:21.922Z,6.83
2018-08-17T09:22:50.491Z,6.97
2018-08-17T09:25:19.208Z,6.60
2018-08-17T09:27:47.780Z,8.00
2018-08-17T09:30:16.357Z,6.00
2018-08-17T09:32:44.962Z,4.80
2018-08-17T09:35:14.134Z,4.87
2018-08-17T09:37:42.603Z,5.13
2018-08-17T09:40:11.736Z,4.50
2018-08-17T09:42:40.265Z,5.17
2018-08-17T09:45:10.950Z,5.50
2018-08-17T09:47:39.467Z,5.60
2018-08-17T09:50:11.276Z,6.33
2018-08-17T09:52:40.096Z,5.90
2018-08-17T09:55:08.644Z,5.27
2018-08-17T09:57:37.172Z,4.57
2018-08-17T10:00:07.068Z,4.30
2018-08-17T10:02:40.862Z,4.57
2018-08-17T10:05:14.657Z,4.33
2018-08-17T10:07:48.399Z,4.63
2018-08-17T10:10:25.688Z,4.53
2018-08-17T10:12:54.264Z,4.47
2018-08-17T10:15:23.814Z,4.07
2018-08-17T10:17:52.337Z,3.50
2018-08-17T10:20:21.907Z,3.57
2018-08-17T10:22:50.371Z,2.70
2018-08-17T10:25:23.138Z,2.27
2018-08-17T10:27:53.716Z,2.60
2018-08-17T10:30:23.160Z,2.27
2018-08-17T10:32:53.560Z,2.20
2018-08-17T10:35:27.268Z,2.30
2018-08-17T10:37:58.835Z,2.30
2018-08-17T10:40:27.783Z,3.17
2018-08-17T10:42:56.550Z,3.00
2018-08-17T10:45:26.383Z,3.43
2018-08-17T10:47:55.435Z,3.20
2018-08-17T10:50:26.020Z,3.67
2018-08-17T10:52:55.828Z,3.90
2018-08-17T10:55:35.800Z,3.30
2018-08-17T10:58:04.840Z,3.37
2018-08-17T11:00:33.339Z,3.70
2018-08-17T11:03:01.817Z,3.80
2018-08-17T11:05:30.717Z,4.17
2018-08-17T11:07:59.253Z,3.47
2018-08-17T11:10:27.736Z,3.30
2018-08-17T11:12:56.559Z,3.77
2018-08-17T11:15:25.075Z,3.70
2018-08-17T11:17:53.555Z,3.37
2018-08-17T11:20:22.175Z,3.27
2018-08-17T11:22:51.098Z,3.20
2018-08-17T11:25:19.683Z,3.70
2018-08-17T11:27:49.628Z,4.27
2018-08-17T11:30:18.264Z,6.43
2018-08-17T11:32:46.760Z,12.50
2018-08-17T11:35:15.354Z,15.03
2018-08-17T11:37:43.936Z,15.80
2018-08-17T11:40:13.276Z,16.23
2018-08-17T11:42:44.302Z,17.80
2018-08-17T11:45:15.292Z,18.10
2018-08-17T11:47:44.404Z,18.73
2018-08-17T11:50:14.283Z,17.77
2018-08-17T11:52:59.094Z,18.17
2018-08-17T11:55:29.408Z,17.77
2018-08-17T11:57:58.030Z,18.63
2018-08-17T12:00:26.886Z,21.77
2018-08-17T12:02:55.376Z,22.47
2018-08-17T12:05:23.857Z,21.10
2018-08-17T12:07:52.355Z,19.50
2018-08-17T12:10:20.937Z,15.20
2018-08-17T12:12:49.445Z,10.43
2018-08-17T12:15:18.099Z,10.37
2018-08-17T12:17:46.620Z,9.23
2018-08-17T12:20:15.088Z,10.07
2018-08-17T12:22:43.644Z,10.77
2018-08-17T12:25:12.173Z,9.90
2018-08-17T12:27:46.628Z,10.63
2018-08-17T12:30:15.185Z,10.07
2018-08-17T12:32:43.687Z,10.10
2018-08-17T12:35:12.213Z,8.00
2018-08-17T12:37:40.728Z,9.40
2018-08-17T12:40:09.350Z,8.83
2018-08-17T12:42:38.746Z,9.83
2018-08-17T12:45:12.404Z,8.43
2018-08-17T12:47:40.931Z,8.20
2018-08-17T12:50:09.731Z,8.77
2018-08-17T12:52:38.237Z,8.27
2018-08-17T12:55:06.792Z,6.50
2018-08-17T12:57:41.137Z,6.27
2018-08-17T13:00:10.040Z,8.70
2018-08-17T13:02:38.540Z,9.17
2018-08-17T13:05:07.108Z,8.47
2018-08-17T13:07:35.619Z,7.30
2018-08-17T13:10:04.255Z,6.77
2018-08-17T13:12:32.802Z,6.40
2018-08-17T13:15:01.387Z,6.70
2018-08-17T13:17:38.032Z,6.87
2018-08-17T13:20:07.017Z,7.13
2018-08-17T13:22:35.735Z,8.27
2018-08-17T13:25:04.868Z,8.83
2018-08-17T13:27:33.483Z,9.83
2018-08-17T13:30:01.956Z,10.97
2018-08-17T13:32:30.512Z,13.03
2018-08-17T13:34:59.067Z,12.90
2018-08-17T13:37:27.596Z,8.13
2018-08-17T13:39:56.164Z,9.30
2018-08-17T13:42:24.699Z,9.67
2018-08-17T13:44:53.316Z,10.53
2018-08-17T13:47:21.797Z,11.53
2018-08-17T13:49:50.303Z,10.77
2018-08-17T13:52:18.858Z,11.03
2018-08-17T13:54:47.356Z,10.73
2018-08-17T13:57:15.872Z,9.47
2018-08-17T13:59:44.490Z,10.47
2018-08-17T14:02:13.078Z,10.57
2018-08-17T14:04:41.639Z,10.87
2018-08-17T14:07:10.157Z,9.73
2018-08-17T14:09:38.836Z,9.30
2018-08-17T14:12:08.344Z,10.63
2018-08-17T14:14:36.854Z,9.73
2018-08-17T14:17:06.027Z,10.63
2018-08-17T14:19:34.608Z,9.77
2018-08-17T14:22:03.156Z,8.50
2018-08-17T14:24:31.632Z,8.73
2018-08-17T14:27:00.108Z,7.73
2018-08-17T14:29:28.608Z,6.93
2018-08-17T14:31:57.160Z,6.70
2018-08-17T14:34:25.808Z,6.40
2018-08-17T14:36:54.306Z,6.10
2018-08-17T14:39:22.863Z,5.40
2018-08-17T14:42:01.992Z,5.13
2018-08-17T14:44:30.863Z,5.23
2018-08-17T14:46:59.410Z,5.47
2018-08-17T14:49:27.974Z,5.63
2018-08-17T14:51:56.558Z,5.20
2018-08-17T14:54:25.059Z,5.70
2018-08-17T14:56:53.645Z,4.53
2018-08-17T14:59:22.808Z,4.57
2018-08-17T15:01:51.308Z,4.13
2018-08-17T15:04:19.820Z,6.20
2018-08-17T15:06:48.348Z,5.90
2018-08-17T15:09:16.951Z,5.17
2018-08-17T15:11:45.451Z,5.80
2018-08-17T15:14:14.686Z,6.20
2018-08-17T15:16:43.776Z,5.03
2018-08-17T15:19:12.441Z,7.10
2018-08-17T15:21:41.432Z,6.27
2018-08-17T15:24:10.561Z,5.43
2018-08-17T15:26:39.119Z,7.77
2018-08-17T15:29:07.634Z,7.40
2018-08-17T15:31:36.877Z,8.07
2018-08-17T15:34:06.772Z,7.97
2018-08-17T15:36:35.297Z,9.27
2018-08-17T15:41:47.416Z,7.30
2018-08-17T15:44:23.070Z,7.43
2018-08-17T15:46:52.147Z,5.70
2018-08-17T15:49:33.452Z,5.33
2018-08-17T15:52:03.116Z,4.23
2018-08-17T15:54:32.397Z,4.77
2018-08-17T15:57:03.722Z,5.67
2018-08-17T15:59:43.516Z,4.67
2018-08-17T16:02:12.025Z,4.97
2018-08-17T16:04:40.591Z,4.67
2018-08-17T16:07:09.282Z,4.03
2018-08-17T16:09:37.744Z,3.40
2018-08-17T16:12:06.823Z,3.23
2018-08-17T16:14:35.725Z,3.80
2018-08-17T16:17:04.272Z,3.40
2018-08-17T16:19:32.794Z,3.30
2018-08-17T16:22:01.711Z,3.70
2018-08-17T16:24:30.188Z,3.50
2018-08-17T16:26:59.309Z,3.40
2018-08-17T16:29:28.226Z,3.17
2018-08-17T16:31:57.536Z,3.00
2018-08-17T16:34:27.477Z,3.60
2018-08-17T16:36:56.576Z,3.30
2018-08-17T16:39:27.007Z,2.93
2018-08-17T16:41:59.838Z,2.50
2018-08-17T16:44:28.352Z,3.00
2018-08-17T16:46:56.857Z,2.90
2018-08-17T16:49:25.409Z,2.60
2018-08-17T16:51:54.102Z,2.70
2018-08-17T16:54:22.611Z,2.87
2018-08-17T16:56:51.147Z,2.73
2018-08-17T16:59:19.725Z,2.60
2018-08-17T17:01:48.252Z,2.50
2018-08-17T17:04:16.800Z,2.20
2018-08-17T17:06:45.336Z,2.43
2018-08-17T17:09:13.852Z,2.60
2018-08-17T17:11:42.511Z,2.30
2018-08-17T17:14:11.561Z,2.30
2018-08-17T17:16:45.501Z,2.17
2018-08-17T17:19:17.659Z,2.60
2018-08-17T17:21:47.296Z,2.40
2018-08-17T17:24:18.324Z,2.30
2018-08-17T17:26:47.249Z,2.30
2018-08-17T17:29:17.516Z,2.23
2018-08-17T17:31:49.352Z,1.93
2018-08-17T17:34:17.964Z,1.87
2018-08-17T17:36:46.475Z,1.90
2018-08-17T17:39:16.899Z,2.10
2018-08-17T17:41:45.860Z,2.20
2018-08-17T17:44:14.889Z,1.93
2018-08-17T17:46:43.372Z,2.17
2018-08-17T17:49:13.204Z,1.70
2018-08-17T17:51:42.204Z,1.40
2018-08-17T17:54:11.065Z,1.80
2018-08-17T17:56:39.517Z,1.77
2018-08-17T17:59:13.475Z,1.87
2018-08-17T18:01:41.946Z,2.00
2018-08-17T18:04:10.460Z,1.90
2018-08-17T18:06:38.971Z,1.70
2018-08-17T18:09:07.578Z,1.83
2018-08-17T18:11:36.164Z,1.60
2018-08-17T18:14:04.717Z,2.10
2018-08-17T18:16:33.192Z,2.10
2018-08-17T18:19:01.650Z,2.33
2018-08-17T18:21:32.855Z,2.47
2018-08-17T18:24:06.756Z,2.50
2018-08-17T18:26:35.586Z,2.10
2018-08-17T18:29:04.129Z,2.13
2018-08-17T18:31:32.636Z,2.33
2018-08-17T18:34:01.205Z,2.10
2018-08-17T18:36:29.744Z,1.80
2018-08-17T18:38:58.235Z,2.10
2018-08-17T18:41:26.730Z,1.90
2018-08-17T18:43:55.214Z,1.90
2018-08-17T18:46:23.707Z,1.90
2018-08-17T18:48:52.289Z,1.87
2018-08-17T18:51:20.864Z,2.00
2018-08-17T18:53:49.492Z,2.30
2018-08-17T18:56:17.956Z,2.00
2018-08-17T18:58:46.754Z,1.90
2018-08-17T19:01:15.297Z,1.90
2018-08-17T19:03:43.792Z,1.87
2018-08-17T19:06:12.283Z,1.90
2018-08-17T19:08:41.087Z,1.90
2018-08-17T19:11:09.648Z,1.87
2018-08-17T19:13:38.112Z,1.90
2018-08-17T19:16:06.722Z,1.73
2018-08-17T19:18:35.163Z,2.30
2018-08-17T19:21:08.548Z,3.93
2018-08-17T19:23:37.507Z,3.97
2018-08-17T19:26:06.719Z,4.10
2018-08-17T19:28:35.359Z,4.23
2018-08-17T19:31:03.887Z,3.63
2018-08-17T19:33:32.408Z,3.53
2018-08-17T19:36:01.089Z,2.97
2018-08-17T19:38:29.651Z,2.70
2018-08-17T19:40:58.183Z,3.90
2018-08-17T19:43:26.730Z,4.43
2018-08-17T19:45:55.195Z,4.37
2018-08-17T19:48:23.816Z,5.30
2018-08-17T19:50:52.369Z,5.23
2018-08-17T19:53:20.843Z,4.57
2018-08-17T19:55:49.292Z,5.20
2018-08-17T19:58:17.821Z,6.43
2018-08-17T20:00:46.223Z,6.07
2018-08-17T20:03:14.739Z,5.07
2018-08-17T20:05:43.245Z,3.53
2018-08-17T20:08:11.749Z,3.40
2018-08-17T20:10:42.416Z,3.40
2018-08-17T20:13:11.018Z,3.93
2018-08-17T20:15:39.516Z,4.63
2018-08-17T20:18:08.036Z,4.07
2018-08-17T20:20:36.616Z,5.00
2018-08-17T20:23:05.131Z,3.83
2018-08-17T20:25:33.690Z,3.27
2018-08-17T20:28:02.168Z,3.60
2018-08-17T20:30:30.723Z,4.00
2018-08-17T20:32:59.301Z,3.67
2018-08-17T20:35:27.925Z,3.20
2018-08-17T20:37:56.501Z,3.53
2018-08-17T20:40:25.024Z,3.77
2018-08-17T20:42:53.715Z,3.90
2018-08-17T20:45:25.772Z,4.10
2018-08-17T20:47:54.472Z,3.57
2018-08-17T20:50:22.950Z,3.97
2018-08-17T20:52:58.517Z,3.50
2018-08-17T20:55:27.387Z,3.20
2018-08-17T20:57:56.829Z,3.53
2018-08-17T21:00:26.887Z,3.50
2018-08-17T21:02:55.623Z,3.43
2018-08-17T21:05:24.181Z,3.57
2018-08-17T21:07:52.796Z,3.70
2018-08-17T21:10:21.340Z,3.33
2018-08-17T21:12:50.137Z,3.63
2018-08-17T21:15:19.096Z,4.03
2018-08-17T21:17:48.274Z,3.70
2018-08-17T21:20:20.582Z,3.27
2018-08-17T21:22:49.161Z,3.50
2018-08-17T21:25:18.016Z,3.93
2018-08-17T21:27:46.853Z,3.70
2018-08-17T21:30:15.457Z,3.60
2018-08-17T21:32:43.940Z,3.70
2018-08-17T21:35:12.568Z,3.53
2018-08-17T21:37:41.265Z,3.60
2018-08-17T21:40:16.328Z,3.60
2018-08-17T21:42:44.972Z,3.50
2018-08-17T21:45:13.456Z,3.40
2018-08-17T21:47:42.015Z,3.30
2018-08-17T21:50:13.822Z,3.23
2018-08-17T21:52:43.340Z,3.80
2018-08-17T21:55:11.811Z,4.10
2018-08-17T21:57:40.363Z,5.40
2018-08-17T22:00:13.992Z,5.20
2018-08-17T22:02:42.499Z,4.67
2018-08-17T22:05:15.399Z,4.73
2018-08-17T22:25:00.796Z,4.57
2018-08-17T22:27:29.829Z,5.27
2018-08-17T22:29:59.261Z,6.17
2018-08-17T22:32:27.837Z,5.30
2018-08-17T22:34:56.408Z,4.60
2018-08-17T22:37:24.913Z,4.40
2018-08-17T22:39:53.468Z,4.60
2018-08-17T22:42:22.998Z,4.00
2018-08-17T22:44:52.019Z,4.10
2018-08-17T22:47:28.402Z,3.93
2018-08-17T22:49:58.089Z,4.80
2018-08-17T22:52:26.745Z,4.60
2018-08-17T22:55:01.617Z,5.23
2018-08-17T22:57:30.847Z,5.03
2018-08-17T23:00:21.143Z,5.70
2018-08-17T23:02:51.036Z,7.00
2018-08-17T23:05:22.000Z,6.80
2018-08-17T23:07:50.559Z,6.20
2018-08-17T23:10:20.409Z,6.20
2018-08-17T23:12:50.130Z,6.00
2018-08-17T23:15:18.748Z,6.83
2018-08-17T23:17:51.491Z,6.30
2018-08-17T23:20:25.238Z,5.67
2018-08-17T23:22:55.722Z,4.90
2018-08-17T23:25:24.357Z,4.50
2018-08-17T23:27:53.278Z,5.23
2018-08-17T23:30:21.853Z,5.10
2018-08-17T23:32:50.431Z,4.97
2018-08-17T23:35:18.885Z,4.87
2018-08-17T23:37:47.429Z,4.37
2018-08-17T23:40:15.921Z,4.10
2018-08-17T23:42:44.821Z,4.67
2018-08-17T23:45:14.991Z,4.80
2018-08-17T23:47:43.633Z,5.20
2018-08-17T23:50:13.243Z,5.50
2018-08-17T23:52:41.975Z,6.07
2018-08-17T23:55:13.186Z,5.30
2018-08-17T23:57:41.930Z,5.73
